Time;durP1;ratioP1;P1;durP2;ratioP2;P2;SDS_P1;SDS_P2;PMS_P1;PMS_P2;Temp;Humidity;BMP_temperature;BMP_pressure;BME280_temperature;BME280_humidity;BME280_pressure;Samples;Min_cycle;Max_cycle;Signal;HPM_P1;HPM_P2
2024/01/31 00:02:37;;;;;;;11.37;7.53;;;;;;;;;;4861943;29;20230;-86
2024/01/31 00:05:41;;;;;;;11.43;7.80;;;;;;;;;;4862650;29;20183;-86
2024/01/31 00:08:45;;;;;;;13.43;8.93;;;;;;;;;;4852110;29;20195;-86
2024/01/31 00:11:49;;;;;;;11.87;8.70;;;;;;;;;;4851925;29;20562;-87
2024/01/31 00:14:54;;;;;;;12.80;9.13;;;;;;;;;;4852392;29;20596;-86
2024/01/31 00:17:59;;;;;;;12.37;8.17;;;;;;;;;;4841082;29;20556;-86
2024/01/31 00:21:03;;;;;;;20.37;9.17;;;;;;;;;;4862611;29;20191;-87
2024/01/31 00:24:09;;;;;;;13.30;8.37;;;;;;;;;;4841069;29;20548;-86
2024/01/31 00:27:14;;;;;;;15.60;9.63;;;;;;;;;;4862349;29;20530;-86
2024/01/31 00:30:18;;;;;;;11.77;8.67;;;;;;;;;;4830808;29;20195;-86
2024/01/31 00:33:23;;;;;;;13.37;8.13;;;;;;;;;;4851928;29;20556;-87
2024/01/31 00:36:27;;;;;;;10.17;7.13;;;;;;;;;;4841787;29;20534;-86
2024/01/31 00:39:34;;;;;;;12.60;8.27;;;;;;;;;;4851356;29;20191;-86
2024/01/31 00:42:39;;;;;;;12.00;7.83;;;;;;;;;;4840773;29;21212;-86
2024/01/31 00:45:43;;;;;;;11.67;7.40;;;;;;;;;;4840857;29;20879;-86
2024/01/31 00:48:47;;;;;;;12.93;7.83;;;;;;;;;;4851201;29;20195;-86
2024/01/31 00:51:51;;;;;;;13.17;8.27;;;;;;;;;;4840636;29;20234;-86
2024/01/31 00:54:55;;;;;;;13.77;8.00;;;;;;;;;;4830336;29;20226;-87
2024/01/31 00:58:00;;;;;;;13.00;7.77;;;;;;;;;;4851223;29;20641;-86
2024/01/31 01:01:05;;;;;;;12.70;7.70;;;;;;;;;;4851807;29;20191;-87
2024/01/31 01:04:10;;;;;;;12.03;8.00;;;;;;;;;;4854820;29;20530;-87
2024/01/31 01:07:14;;;;;;;11.43;7.33;;;;;;;;;;4844549;29;20191;-87
2024/01/31 01:10:19;;;;;;;12.00;7.57;;;;;;;;;;4844160;29;20199;-87
2024/01/31 01:13:23;;;;;;;10.60;7.67;;;;;;;;;;4855027;29;20638;-87
2024/01/31 01:16:29;;;;;;;13.03;7.43;;;;;;;;;;4844027;29;20183;-87
2024/01/31 01:19:34;;;;;;;9.97;7.23;;;;;;;;;;4864861;29;20199;-87
2024/01/31 01:22:38;;;;;;;10.77;7.33;;;;;;;;;;4844690;29;20226;-87
2024/01/31 01:25:43;;;;;;;10.60;7.43;;;;;;;;;;4844159;29;20183;-87
2024/01/31 01:28:47;;;;;;;12.07;7.20;;;;;;;;;;4855402;29;20203;-86
2024/01/31 01:31:51;;;;;;;9.73;7.20;;;;;;;;;;4854315;29;20596;-86
2024/01/31 01:34:55;;;;;;;10.13;7.00;;;;;;;;;;4864597;29;20227;-88
2024/01/31 01:37:59;;;;;;;11.70;7.57;;;;;;;;;;4854501;29;20538;-87
2024/01/31 01:41:04;;;;;;;10.60;6.90;;;;;;;;;;4864117;29;20214;-87
2024/01/31 01:44:09;;;;;;;10.43;6.83;;;;;;;;;;4864562;29;20187;-88
2024/01/31 01:47:15;;;;;;;9.43;6.13;;;;;;;;;;4864402;29;20903;-87
2024/01/31 01:50:19;;;;;;;11.97;7.17;;;;;;;;;;4864527;29;20187;-87
2024/01/31 01:53:24;;;;;;;11.20;7.60;;;;;;;;;;4853970;29;20195;-88
2024/01/31 01:56:29;;;;;;;9.53;7.10;;;;;;;;;;4864031;29;20179;-88
2024/01/31 01:59:34;;;;;;;13.03;7.10;;;;;;;;;;4853902;29;20198;-87
2024/01/31 02:02:38;;;;;;;8.73;6.60;;;;;;;;;;4853375;29;20222;-87
2024/01/31 02:05:45;;;;;;;9.50;6.33;;;;;;;;;;4864440;29;20192;-87
2024/01/31 02:08:49;;;;;;;10.53;6.47;;;;;;;;;;4865364;29;20548;-87
2024/01/31 02:11:54;;;;;;;8.27;6.07;;;;;;;;;;4869804;29;20627;-88
2024/01/31 02:14:59;;;;;;;8.47;6.20;;;;;;;;;;4868769;29;20599;-88
2024/01/31 02:18:06;;;;;;;11.57;6.57;;;;;;;;;;4848071;29;20556;-88
2024/01/31 02:21:11;;;;;;;9.43;6.60;;;;;;;;;;4868465;29;20231;-87
2024/01/31 02:24:15;;;;;;;7.97;6.07;;;;;;;;;;4867830;29;20544;-87
2024/01/31 02:27:20;;;;;;;10.17;7.17;;;;;;;;;;4867949;29;20887;-87
2024/01/31 02:30:25;;;;;;;10.83;6.53;;;;;;;;;;4868087;29;20556;-88
2024/01/31 02:33:29;;;;;;;10.47;6.93;;;;;;;;;;4857584;29;20548;-87
2024/01/31 02:36:33;;;;;;;12.03;7.40;;;;;;;;;;4857404;29;20532;-87
2024/01/31 02:39:38;;;;;;;11.57;7.30;;;;;;;;;;4857686;29;20552;-87
2024/01/31 02:42:43;;;;;;;11.13;7.07;;;;;;;;;;4857041;29;20659;-87
2024/01/31 02:45:47;;;;;;;10.00;7.30;;;;;;;;;;4856689;29;20544;-87
2024/01/31 02:48:51;;;;;;;11.53;7.70;;;;;;;;;;4857266;29;20548;-87
2024/01/31 02:51:55;;;;;;;12.07;6.90;;;;;;;;;;4869869;29;20634;-88
2024/01/31 02:55:01;;;;;;;9.60;6.67;;;;;;;;;;4860567;29;20603;-88
2024/01/31 02:58:06;;;;;;;11.47;7.27;;;;;;;;;;4862296;29;20544;-87
2024/01/31 03:01:11;;;;;;;12.43;7.80;;;;;;;;;;4860775;29;20619;-88
2024/01/31 03:04:15;;;;;;;11.90;7.27;;;;;;;;;;4861770;29;20553;-87
2024/01/31 03:07:19;;;;;;;11.03;7.97;;;;;;;;;;4873324;29;20548;-87
2024/01/31 03:10:24;;;;;;;11.30;7.50;;;;;;;;;;4873423;29;20548;-87
2024/01/31 03:13:28;;;;;;;10.93;7.03;;;;;;;;;;4851536;29;20879;-87
2024/01/31 03:16:32;;;;;;;10.47;7.60;;;;;;;;;;4850536;29;21086;-88
2024/01/31 03:19:37;;;;;;;12.97;7.53;;;;;;;;;;4856923;29;20592;-88
2024/01/31 03:22:42;;;;;;;12.57;8.37;;;;;;;;;;4839787;29;20635;-87
2024/01/31 03:25:45;;;;;;;13.10;8.50;;;;;;;;;;4839176;29;20541;-88
2024/01/31 03:28:50;;;;;;;11.17;7.33;;;;;;;;;;4860288;29;20552;-87
2024/01/31 03:31:54;;;;;;;14.70;8.70;;;;;;;;;;4849500;29;20627;-88
2024/01/31 03:34:59;;;;;;;11.43;7.50;;;;;;;;;;4839800;29;20600;-88
2024/01/31 03:38:03;;;;;;;9.90;7.10;;;;;;;;;;4838231;29;20572;-88
2024/01/31 03:41:08;;;;;;;13.30;7.80;;;;;;;;;;4838202;29;20639;-87
2024/01/31 03:44:13;;;;;;;9.60;7.10;;;;;;;;;;4838511;29;20548;-88
2024/01/31 03:47:18;;;;;;;12.03;7.73;;;;;;;;;;4848454;29;20551;-88
2024/01/31 03:50:22;;;;;;;11.37;7.17;;;;;;;;;;4869423;29;20548;-87
2024/01/31 03:53:27;;;;;;;10.53;7.77;;;;;;;;;;4848677;29;20553;-88
2024/01/31 03:56:32;;;;;;;10.87;7.00;;;;;;;;;;4847868;29;20600;-88
2024/01/31 03:59:37;;;;;;;13.27;7.90;;;;;;;;;;4837973;29;20564;-87
2024/01/31 04:02:41;;;;;;;11.67;7.60;;;;;;;;;;4858449;29;20967;-88
2024/01/31 04:05:45;;;;;;;13.10;8.20;;;;;;;;;;4837076;29;20187;-87
2024/01/31 04:08:50;;;;;;;14.37;8.60;;;;;;;;;;4837159;29;20552;-87
2024/01/31 04:11:54;;;;;;;13.57;8.47;;;;;;;;;;4847219;29;20231;-88
2024/01/31 04:14:58;;;;;;;13.30;8.07;;;;;;;;;;4846639;29;20603;-87
2024/01/31 04:18:04;;;;;;;14.17;8.73;;;;;;;;;;4847031;29;20190;-88
2024/01/31 04:21:08;;;;;;;11.87;8.57;;;;;;;;;;4856901;29;20226;-88
2024/01/31 04:24:12;;;;;;;14.27;8.60;;;;;;;;;;4856489;29;20190;-87
2024/01/31 04:27:17;;;;;;;10.83;8.30;;;;;;;;;;4866783;29;20549;-88
2024/01/31 04:30:21;;;;;;;11.20;7.27;;;;;;;;;;4856142;29;20190;-88
2024/01/31 04:33:25;;;;;;;10.20;7.13;;;;;;;;;;4855938;29;20552;-88
2024/01/31 04:36:30;;;;;;;8.40;6.47;;;;;;;;;;4836376;29;20218;-87
2024/01/31 04:39:35;;;;;;;9.70;7.27;;;;;;;;;;4848437;29;20195;-88
2024/01/31 04:42:40;;;;;;;11.63;6.93;;;;;;;;;;4847540;29;20234;-87
2024/01/31 04:45:44;;;;;;;11.20;7.33;;;;;;;;;;4837640;29;20537;-88
2024/01/31 04:48:48;;;;;;;11.90;7.30;;;;;;;;;;4848103;29;20210;-88
2024/01/31 04:51:55;;;;;;;11.87;7.63;;;;;;;;;;4837831;29;20226;-88
2024/01/31 04:55:00;;;;;;;10.67;7.60;;;;;;;;;;4847093;29;20219;-88
2024/01/31 04:58:04;;;;;;;10.43;8.17;;;;;;;;;;4847068;29;20191;-87
2024/01/31 05:01:08;;;;;;;9.43;7.57;;;;;;;;;;4836567;29;20234;-88
2024/01/31 05:04:12;;;;;;;13.63;8.27;;;;;;;;;;4846566;29;20187;-88
2024/01/31 05:07:16;;;;;;;10.37;7.90;;;;;;;;;;4847431;29;20187;-87
2024/01/31 05:10:21;;;;;;;11.23;8.00;;;;;;;;;;4868484;29;20186;-88
2024/01/31 05:13:25;;;;;;;10.23;7.47;;;;;;;;;;4846637;29;20187;-87
2024/01/31 05:16:29;;;;;;;10.40;6.60;;;;;;;;;;4835868;29;20219;-88
2024/01/31 05:19:33;;;;;;;9.33;7.17;;;;;;;;;;4846549;29;20530;-88
2024/01/31 05:22:37;;;;;;;10.37;7.47;;;;;;;;;;4845871;29;20227;-88
2024/01/31 05:25:41;;;;;;;11.03;7.00;;;;;;;;;;4846006;29;20190;-88
2024/01/31 05:28:46;;;;;;;9.87;6.50;;;;;;;;;;4846559;29;20534;-88
2024/01/31 05:31:50;;;;;;;9.10;7.40;;;;;;;;;;4836194;29;20231;-87
2024/01/31 05:34:54;;;;;;;10.20;7.30;;;;;;;;;;4867576;29;20199;-87
2024/01/31 05:37:58;;;;;;;8.50;6.17;;;;;;;;;;4856540;29;20191;-88
2024/01/31 05:41:02;;;;;;;11.80;7.63;;;;;;;;;;4835094;29;20223;-88
2024/01/31 05:44:06;;;;;;;9.87;7.00;;;;;;;;;;4845693;29;20198;-88
2024/01/31 05:47:14;;;;;;;9.57;7.10;;;;;;;;;;4855932;29;20185;-88
2024/01/31 05:50:19;;;;;;;10.73;7.37;;;;;;;;;;4844982;29;20180;-87
2024/01/31 05:53:23;;;;;;;11.77;7.67;;;;;;;;;;4845819;29;20190;-88
2024/01/31 05:56:27;;;;;;;11.07;7.33;;;;;;;;;;4834442;29;20563;-87
2024/01/31 05:59:32;;;;;;;11.07;7.50;;;;;;;;;;4854908;29;20186;-88
2024/01/31 06:02:36;;;;;;;11.83;7.27;;;;;;;;;;4856681;29;20227;-88
2024/01/31 06:05:41;;;;;;;10.13;7.03;;;;;;;;;;4845332;29;20187;-88
2024/01/31 06:08:45;;;;;;;9.23;7.07;;;;;;;;;;4845366;29;20187;-88
2024/01/31 06:11:52;;;;;;;9.67;6.80;;;;;;;;;;4862317;29;20230;-88
2024/01/31 06:14:57;;;;;;;10.17;6.73;;;;;;;;;;4836642;29;20195;-88
2024/01/31 06:18:01;;;;;;;12.13;7.63;;;;;;;;;;4846558;29;20530;-88
2024/01/31 06:21:06;;;;;;;10.80;7.60;;;;;;;;;;4867021;29;20199;-88
2024/01/31 06:24:10;;;;;;;11.90;7.53;;;;;;;;;;4844912;29;20190;-88
2024/01/31 06:27:14;;;;;;;11.67;7.27;;;;;;;;;;4834505;29;20546;-88
2024/01/31 06:30:30;;;;;;;10.73;7.27;;;;;;;;;;4866750;29;20195;-87
2024/01/31 06:33:35;;;;;;;12.83;8.80;;;;;;;;;;4845851;29;20192;-87
2024/01/31 06:36:40;;;;;;;13.10;8.07;;;;;;;;;;4866209;29;20231;-89
2024/01/31 06:39:44;;;;;;;13.10;7.97;;;;;;;;;;4832878;29;20191;-88
2024/01/31 06:42:51;;;;;;;10.53;6.40;;;;;;;;;;4854065;29;20234;-80
2024/01/31 06:45:56;;;;;;;14.20;9.87;;;;;;;;;;4843547;29;20187;-88
2024/01/31 06:49:26;;;;;;;12.93;8.63;;;;;;;;;;4841965;29;20191;-89
2024/01/31 06:52:31;;;;;;;11.67;8.80;;;;;;;;;;4841803;29;20696;-90
2024/01/31 06:55:35;;;;;;;14.83;9.27;;;;;;;;;;4841706;29;20219;-89
2024/01/31 06:58:39;;;;;;;11.33;7.90;;;;;;;;;;4853905;29;20546;-90
2024/01/31 07:01:43;;;;;;;14.53;9.07;;;;;;;;;;4846499;29;20226;-89
2024/01/31 07:04:47;;;;;;;17.17;9.47;;;;;;;;;;4857191;29;20194;-90
2024/01/31 07:07:51;;;;;;;18.90;11.80;;;;;;;;;;4862696;29;20212;-89
2024/01/31 07:10:59;;;;;;;21.87;10.73;;;;;;;;;;4841253;29;20195;-89
2024/01/31 07:14:03;;;;;;;18.90;10.00;;;;;;;;;;4852083;29;20195;-89
2024/01/31 07:17:07;;;;;;;21.87;12.10;;;;;;;;;;4841031;29;20223;-91
2024/01/31 07:20:11;;;;;;;18.33;11.93;;;;;;;;;;4841532;29;20198;-89
2024/01/31 07:23:17;;;;;;;16.83;10.13;;;;;;;;;;4841208;29;20191;-90
2024/01/31 07:26:22;;;;;;;18.97;12.40;;;;;;;;;;4851373;29;20534;-90
2024/01/31 07:29:27;;;;;;;17.43;10.50;;;;;;;;;;4851555;29;20561;-90
2024/01/31 07:32:31;;;;;;;19.67;11.27;;;;;;;;;;4862539;29;20218;-89
2024/01/31 07:35:35;;;;;;;19.87;11.63;;;;;;;;;;4862110;29;20195;-90
2024/01/31 07:38:43;;;;;;;17.83;10.23;;;;;;;;;;4861761;29;20195;-89
2024/01/31 07:41:47;;;;;;;19.10;10.83;;;;;;;;;;4851344;29;20245;-89
2024/01/31 07:44:52;;;;;;;16.80;10.17;;;;;;;;;;4862171;29;20191;-89
2024/01/31 07:47:59;;;;;;;14.67;9.63;;;;;;;;;;4851147;29;20554;-89
2024/01/31 07:51:05;;;;;;;16.07;9.50;;;;;;;;;;4840717;29;20188;-90
2024/01/31 07:54:10;;;;;;;12.33;9.10;;;;;;;;;;4851447;29;20191;-90
2024/01/31 08:02:32;;;;;;;12.37;9.00;;;;;;;;;;4805480;29;20228;-91
2024/01/31 08:05:39;;;;;;;17.13;9.40;;;;;;;;;;4811247;29;20572;-90
2024/01/31 08:09:07;;;;;;;19.90;12.57;;;;;;;;;;4861652;29;20190;-91
2024/01/31 08:12:11;;;;;;;20.33;12.13;;;;;;;;;;4850968;29;20234;-90
2024/01/31 08:15:16;;;;;;;16.90;11.67;;;;;;;;;;4830179;29;20190;-90
2024/01/31 08:18:25;;;;;;;15.37;9.37;;;;;;;;;;4840743;29;20549;-89
2024/01/31 08:21:33;;;;;;;12.93;9.33;;;;;;;;;;4850816;29;20234;-90
2024/01/31 08:24:39;;;;;;;13.13;9.30;;;;;;;;;;4841007;29;20199;-89
2024/01/31 08:27:44;;;;;;;15.07;8.37;;;;;;;;;;4840515;29;20195;-89
2024/01/31 08:30:48;;;;;;;13.77;9.43;;;;;;;;;;4840636;29;20191;-89
2024/01/31 08:33:52;;;;;;;15.17;10.60;;;;;;;;;;4840693;29;20186;-88
2024/01/31 08:36:56;;;;;;;13.23;9.67;;;;;;;;;;4861108;29;20222;-88
2024/01/31 08:40:00;;;;;;;18.70;13.67;;;;;;;;;;4851044;29;20211;-88
2024/01/31 08:43:23;;;;;;;20.07;13.77;;;;;;;;;;4840624;29;20592;-90
2024/01/31 08:50:53;;;;;;;15.10;11.57;;;;;;;;;;4862994;29;20195;-89
2024/01/31 08:53:58;;;;;;;21.70;15.43;;;;;;;;;;4840276;29;20199;-91
2024/01/31 08:57:09;;;;;;;32.17;22.67;;;;;;;;;;4850785;29;20223;-90
2024/01/31 09:00:15;;;;;;;24.83;18.37;;;;;;;;;;4829788;29;20187;-89
2024/01/31 09:03:19;;;;;;;21.43;16.80;;;;;;;;;;4850260;29;20191;-89
2024/01/31 09:06:24;;;;;;;23.90;19.43;;;;;;;;;;4861815;29;20187;-90
2024/01/31 09:09:28;;;;;;;18.60;12.93;;;;;;;;;;4863023;29;20199;-91
2024/01/31 09:12:35;;;;;;;17.77;12.07;;;;;;;;;;4830214;29;20234;-92
2024/01/31 09:15:39;;;;;;;17.70;11.87;;;;;;;;;;4840239;29;20195;-90
2024/01/31 09:18:43;;;;;;;19.57;14.27;;;;;;;;;;4840072;29;20187;-90
2024/01/31 09:21:47;;;;;;;15.37;11.43;;;;;;;;;;4830206;29;20235;-91
2024/01/31 09:24:51;;;;;;;18.10;11.80;;;;;;;;;;4833446;29;20515;-91
2024/01/31 09:27:56;;;;;;;15.00;10.97;;;;;;;;;;4843750;29;20183;-91
2024/01/31 09:31:00;;;;;;;15.97;10.77;;;;;;;;;;4833365;29;20191;-90
2024/01/31 09:34:04;;;;;;;21.07;13.13;;;;;;;;;;4833559;29;20183;-91
2024/01/31 09:37:08;;;;;;;30.27;17.23;;;;;;;;;;4843459;29;20696;-91
2024/01/31 09:40:15;;;;;;;52.10;25.13;;;;;;;;;;4854104;29;20187;-91
2024/01/31 09:43:24;;;;;;;117.93;52.53;;;;;;;;;;4843738;29;20200;-90
2024/01/31 09:46:30;;;;;;;196.23;78.03;;;;;;;;;;4833172;29;20194;-87
2024/01/31 11:15:29;;;;;;;13.13;9.57;;;;;;;;;;4872889;29;20203;-90
2024/01/31 11:34:03;;;;;;;14.20;10.97;;;;;;;;;;4806001;29;20209;-90
2024/01/31 11:37:07;;;;;;;16.37;11.20;;;;;;;;;;4796339;29;20237;-90
2024/01/31 11:40:11;;;;;;;18.33;12.90;;;;;;;;;;4786159;29;20189;-89
2024/01/31 12:41:11;;;;;;;19.70;14.23;;;;;;;;;;4806090;29;20582;-86
2024/01/31 12:44:16;;;;;;;13.53;10.07;;;;;;;;;;4798052;29;20205;-86
2024/01/31 12:47:21;;;;;;;14.00;10.13;;;;;;;;;;4798178;29;20228;-86
2024/01/31 12:50:26;;;;;;;11.77;9.07;;;;;;;;;;4797828;29;20193;-86
2024/01/31 12:53:30;;;;;;;11.33;8.73;;;;;;;;;;4798034;29;20193;-86
2024/01/31 12:56:34;;;;;;;11.87;8.73;;;;;;;;;;4809832;29;20193;-86
2024/01/31 12:59:38;;;;;;;11.50;8.87;;;;;;;;;;4791757;29;20181;-85
2024/01/31 13:02:42;;;;;;;12.90;9.13;;;;;;;;;;4790361;29;20193;-86
2024/01/31 13:05:46;;;;;;;12.43;9.60;;;;;;;;;;4800698;29;20193;-86
2024/01/31 13:08:51;;;;;;;11.77;9.27;;;;;;;;;;4811432;29;20233;-86
2024/01/31 13:11:55;;;;;;;15.17;10.07;;;;;;;;;;4811684;29;20193;-86
2024/01/31 13:14:59;;;;;;;12.77;9.10;;;;;;;;;;4800579;29;20197;-86
2024/01/31 13:18:04;;;;;;;15.50;9.93;;;;;;;;;;4789567;29;20240;-86
2024/01/31 13:21:08;;;;;;;14.77;10.23;;;;;;;;;;4800034;29;20197;-86
2024/01/31 13:24:12;;;;;;;15.93;9.97;;;;;;;;;;4811706;29;20650;-86
2024/01/31 13:27:16;;;;;;;14.77;11.13;;;;;;;;;;4811946;29;20228;-86
2024/01/31 13:30:21;;;;;;;16.00;11.03;;;;;;;;;;4811356;29;20193;-86
2024/01/31 13:33:26;;;;;;;17.60;10.83;;;;;;;;;;4811576;29;20197;-86
2024/01/31 13:36:30;;;;;;;14.37;10.07;;;;;;;;;;4799904;29;20189;-86
2024/01/31 13:39:35;;;;;;;25.13;14.17;;;;;;;;;;4800002;29;20240;-86
2024/01/31 13:42:39;;;;;;;23.00;12.83;;;;;;;;;;4789624;29;20193;-86
2024/01/31 13:45:44;;;;;;;13.77;10.27;;;;;;;;;;4799521;29;20564;-86
2024/01/31 13:48:48;;;;;;;13.93;9.90;;;;;;;;;;4799449;29;20233;-86
2024/01/31 13:51:52;;;;;;;15.30;9.90;;;;;;;;;;4810783;29;20658;-86
2024/01/31 13:54:56;;;;;;;15.10;10.17;;;;;;;;;;4810762;29;20205;-86
2024/01/31 13:58:00;;;;;;;14.87;10.03;;;;;;;;;;4789646;29;20240;-86
2024/01/31 14:01:04;;;;;;;15.47;10.13;;;;;;;;;;4810017;29;20197;-86
2024/01/31 14:04:08;;;;;;;13.70;9.23;;;;;;;;;;4810812;29;20192;-86
2024/01/31 14:07:12;;;;;;;14.70;9.93;;;;;;;;;;4809905;29;20233;-86
2024/01/31 14:10:16;;;;;;;13.63;10.33;;;;;;;;;;4799328;29;20189;-86
2024/01/31 14:13:20;;;;;;;15.07;10.23;;;;;;;;;;4810175;29;20643;-86
2024/01/31 14:16:24;;;;;;;16.17;10.57;;;;;;;;;;4799458;29;20192;-86
2024/01/31 14:19:29;;;;;;;17.23;9.67;;;;;;;;;;4809307;29;20220;-86
2024/01/31 14:22:38;;;;;;;14.50;10.53;;;;;;;;;;4799242;29;20189;-85
2024/01/31 14:25:43;;;;;;;14.17;10.20;;;;;;;;;;4798961;29;20197;-86
2024/01/31 14:28:47;;;;;;;14.33;9.43;;;;;;;;;;4788560;29;20228;-86
2024/01/31 14:31:51;;;;;;;15.97;9.33;;;;;;;;;;4798829;29;20192;-86
2024/01/31 14:34:56;;;;;;;15.10;9.60;;;;;;;;;;4788845;29;20193;-86
2024/01/31 14:38:01;;;;;;;13.90;9.07;;;;;;;;;;4809264;29;20241;-86
2024/01/31 14:41:05;;;;;;;14.00;9.10;;;;;;;;;;4788603;29;20220;-86
2024/01/31 14:44:10;;;;;;;13.87;10.03;;;;;;;;;;4799192;29;20197;-86
2024/01/31 14:47:14;;;;;;;17.23;10.30;;;;;;;;;;4798719;29;20232;-86
2024/01/31 14:50:20;;;;;;;16.00;9.50;;;;;;;;;;4809975;29;20197;-86
2024/01/31 14:53:25;;;;;;;16.20;9.40;;;;;;;;;;4809008;29;20196;-89
2024/01/31 14:56:30;;;;;;;13.90;9.20;;;;;;;;;;4788173;29;20540;-87
2024/01/31 14:59:34;;;;;;;12.30;9.10;;;;;;;;;;4799708;29;20224;-87
2024/01/31 15:02:39;;;;;;;15.50;9.87;;;;;;;;;;4799025;29;20197;-86
2024/01/31 15:05:43;;;;;;;14.13;9.50;;;;;;;;;;4798681;29;20193;-86
2024/01/31 15:08:47;;;;;;;18.73;9.83;;;;;;;;;;4798226;29;20229;-86
2024/01/31 15:11:51;;;;;;;12.33;9.27;;;;;;;;;;4810748;29;20188;-85
2024/01/31 15:14:56;;;;;;;13.57;9.53;;;;;;;;;;4809221;29;20197;-86
2024/01/31 15:18:00;;;;;;;12.80;9.10;;;;;;;;;;4788025;29;20232;-86
2024/01/31 15:21:05;;;;;;;15.73;9.13;;;;;;;;;;4787597;29;20655;-86
2024/01/31 15:24:09;;;;;;;15.77;10.90;;;;;;;;;;4809439;29;20197;-86
2024/01/31 15:27:13;;;;;;;14.07;9.00;;;;;;;;;;4798364;29;20738;-86
2024/01/31 15:30:17;;;;;;;14.20;9.93;;;;;;;;;;4797927;29;20185;-86
2024/01/31 15:33:21;;;;;;;16.17;9.80;;;;;;;;;;4787462;29;20196;-86
2024/01/31 15:36:25;;;;;;;15.87;10.20;;;;;;;;;;4797767;29;20193;-86
2024/01/31 15:39:29;;;;;;;14.50;9.40;;;;;;;;;;4808487;29;20243;-86
2024/01/31 15:42:34;;;;;;;14.83;10.20;;;;;;;;;;4799265;29;20193;-86
2024/01/31 15:45:47;;;;;;;14.37;8.73;;;;;;;;;;4809374;29;20181;-86
2024/01/31 15:48:51;;;;;;;13.07;9.13;;;;;;;;;;4820299;29;20572;-86
2024/01/31 15:51:56;;;;;;;12.40;9.67;;;;;;;;;;4799624;29;20188;-86
2024/01/31 15:55:01;;;;;;;13.33;10.03;;;;;;;;;;4809979;29;20197;-86
2024/01/31 15:58:05;;;;;;;14.43;9.57;;;;;;;;;;4787948;29;20702;-86
2024/01/31 16:01:09;;;;;;;15.33;9.30;;;;;;;;;;4809187;29;20188;-86
2024/01/31 16:04:14;;;;;;;13.80;8.60;;;;;;;;;;4798209;29;20193;-86
2024/01/31 16:07:20;;;;;;;16.23;9.73;;;;;;;;;;4787309;29;20228;-86
2024/01/31 16:10:28;;;;;;;15.97;9.43;;;;;;;;;;4797781;29;20189;-86
2024/01/31 16:13:33;;;;;;;15.43;10.17;;;;;;;;;;4809286;29;20647;-86
2024/01/31 16:16:37;;;;;;;14.23;9.40;;;;;;;;;;4808303;29;20205;-86
2024/01/31 16:19:41;;;;;;;15.13;10.67;;;;;;;;;;4797698;29;20221;-86
2024/01/31 16:22:45;;;;;;;13.73;10.03;;;;;;;;;;4798044;29;20197;-86
2024/01/31 16:25:49;;;;;;;18.27;10.47;;;;;;;;;;4788643;29;20564;-86
2024/01/31 16:28:55;;;;;;;13.37;9.50;;;;;;;;;;4788505;29;20224;-86
2024/01/31 16:31:59;;;;;;;14.70;9.30;;;;;;;;;;4776798;29;20197;-87
2024/01/31 16:35:03;;;;;;;16.07;9.53;;;;;;;;;;4787313;29;20189;-86
2024/01/31 16:38:08;;;;;;;13.97;9.77;;;;;;;;;;4809182;29;20232;-86
2024/01/31 16:41:22;;;;;;;15.40;9.90;;;;;;;;;;4787764;29;20549;-86
2024/01/31 16:44:26;;;;;;;19.23;10.67;;;;;;;;;;4777771;29;20193;-86
2024/01/31 16:47:30;;;;;;;14.13;9.13;;;;;;;;;;4798360;29;20236;-86
2024/01/31 16:50:34;;;;;;;13.87;9.73;;;;;;;;;;4798111;29;20193;-86
2024/01/31 16:53:39;;;;;;;16.63;10.10;;;;;;;;;;4809056;29;20189;-86
2024/01/31 16:56:43;;;;;;;16.50;10.33;;;;;;;;;;4799128;29;20197;-86
2024/01/31 16:59:47;;;;;;;15.57;10.10;;;;;;;;;;4798822;29;20220;-86
2024/01/31 17:02:51;;;;;;;17.43;10.50;;;;;;;;;;4809467;29;20196;-86
2024/01/31 17:05:55;;;;;;;14.33;9.97;;;;;;;;;;4809425;29;20197;-86
2024/01/31 17:09:00;;;;;;;14.27;10.27;;;;;;;;;;4788774;29;20228;-88
2024/01/31 17:12:04;;;;;;;12.97;10.23;;;;;;;;;;4809454;29;20189;-86
2024/01/31 17:15:08;;;;;;;15.27;10.83;;;;;;;;;;4808774;29;20536;-85
2024/01/31 17:18:16;;;;;;;23.30;12.30;;;;;;;;;;4798163;29;20233;-85
2024/01/31 17:21:20;;;;;;;21.77;13.87;;;;;;;;;;4798122;29;20189;-85
2024/01/31 17:24:25;;;;;;;20.73;13.23;;;;;;;;;;4798631;29;20552;-85
2024/01/31 17:27:29;;;;;;;22.27;14.00;;;;;;;;;;4809838;29;20229;-86
2024/01/31 17:30:38;;;;;;;21.63;14.63;;;;;;;;;;4799896;29;20193;-86
2024/01/31 17:33:42;;;;;;;19.13;13.17;;;;;;;;;;4799029;29;20189;-86
2024/01/31 17:36:46;;;;;;;19.47;13.40;;;;;;;;;;4809231;29;20193;-86
2024/01/31 17:39:50;;;;;;;18.83;12.83;;;;;;;;;;4797527;29;20241;-86
2024/01/31 17:42:54;;;;;;;21.13;13.03;;;;;;;;;;4799234;29;20193;-86
2024/01/31 17:45:58;;;;;;;18.87;12.97;;;;;;;;;;4800793;29;20189;-86
2024/01/31 17:49:03;;;;;;;17.40;13.03;;;;;;;;;;4800977;29;20224;-85
2024/01/31 17:52:08;;;;;;;17.13;12.37;;;;;;;;;;4800733;29;20563;-86
2024/01/31 17:55:13;;;;;;;18.43;12.27;;;;;;;;;;4801348;29;20201;-86
2024/01/31 17:58:17;;;;;;;18.20;12.70;;;;;;;;;;4800685;29;20228;-84
2024/01/31 18:01:21;;;;;;;23.30;13.20;;;;;;;;;;4800819;29;20181;-85
2024/01/31 18:04:26;;;;;;;16.47;12.83;;;;;;;;;;4800635;29;20193;-85
2024/01/31 18:07:30;;;;;;;21.07;12.83;;;;;;;;;;4812016;29;20706;-84
2024/01/31 18:10:34;;;;;;;18.10;12.10;;;;;;;;;;4801255;29;20192;-85
2024/01/31 18:13:38;;;;;;;18.30;12.87;;;;;;;;;;4802408;29;20193;-85
2024/01/31 18:16:43;;;;;;;21.57;12.77;;;;;;;;;;4801110;29;20197;-84
2024/01/31 18:19:47;;;;;;;17.57;11.93;;;;;;;;;;4800491;29;20221;-85
2024/01/31 18:22:51;;;;;;;18.87;12.53;;;;;;;;;;4800196;29;20192;-85
2024/01/31 18:25:55;;;;;;;16.90;12.23;;;;;;;;;;4800440;29;20192;-85
2024/01/31 18:28:59;;;;;;;19.20;11.67;;;;;;;;;;4812342;29;20229;-86
2024/01/31 18:32:05;;;;;;;20.43;12.70;;;;;;;;;;4810923;29;20484;-84
2024/01/31 18:35:09;;;;;;;19.20;11.60;;;;;;;;;;4811445;29;20197;-85
2024/01/31 18:38:13;;;;;;;18.37;12.77;;;;;;;;;;4810192;29;20714;-82
2024/01/31 18:41:18;;;;;;;20.37;13.60;;;;;;;;;;4816796;29;20193;-82
2024/01/31 18:44:22;;;;;;;17.30;11.97;;;;;;;;;;4799997;29;20193;-82
2024/01/31 18:47:27;;;;;;;24.10;12.87;;;;;;;;;;4812197;29;20224;-81
2024/01/31 18:50:30;;;;;;;20.83;12.07;;;;;;;;;;4810060;29;20193;-81
2024/01/31 18:53:39;;;;;;;20.37;11.90;;;;;;;;;;4799203;29;20196;-82
2024/01/31 18:56:44;;;;;;;18.70;11.33;;;;;;;;;;4810040;29;20193;-81
2024/01/31 18:59:48;;;;;;;15.17;11.90;;;;;;;;;;4810557;29;20225;-81
2024/01/31 19:02:52;;;;;;;17.37;12.27;;;;;;;;;;4799150;29;20529;-81
2024/01/31 19:05:56;;;;;;;19.63;12.03;;;;;;;;;;4809966;29;20189;-81
2024/01/31 19:09:01;;;;;;;18.20;12.80;;;;;;;;;;4799201;29;20229;-82
2024/01/31 19:12:05;;;;;;;19.00;12.23;;;;;;;;;;4798933;29;20188;-81
2024/01/31 19:15:09;;;;;;;19.57;12.37;;;;;;;;;;4809792;29;20201;-82
2024/01/31 19:18:13;;;;;;;19.13;12.33;;;;;;;;;;4798465;29;20232;-81
2024/01/31 19:21:18;;;;;;;19.80;12.10;;;;;;;;;;4810057;29;20247;-81
2024/01/31 19:24:23;;;;;;;19.30;13.10;;;;;;;;;;4809256;29;20197;-81
2024/01/31 19:27:27;;;;;;;19.03;12.73;;;;;;;;;;4798869;29;20228;-81
2024/01/31 19:30:31;;;;;;;17.93;11.97;;;;;;;;;;4809632;29;20193;-81
2024/01/31 19:33:37;;;;;;;18.27;12.17;;;;;;;;;;4809678;29;20193;-81
2024/01/31 19:36:41;;;;;;;18.20;12.87;;;;;;;;;;4809365;29;20560;-82
2024/01/31 19:39:45;;;;;;;17.03;11.87;;;;;;;;;;4798189;29;20236;-81
2024/01/31 19:42:49;;;;;;;20.63;13.03;;;;;;;;;;4799042;29;20197;-82
2024/01/31 19:45:54;;;;;;;21.03;13.27;;;;;;;;;;4809574;29;20189;-82
2024/01/31 19:48:58;;;;;;;17.73;12.07;;;;;;;;;;4797626;29;20328;-82
2024/01/31 19:52:05;;;;;;;18.33;11.87;;;;;;;;;;4797561;29;20193;-82
2024/01/31 19:55:10;;;;;;;17.60;12.07;;;;;;;;;;4797760;29;20197;-82
2024/01/31 19:58:14;;;;;;;20.00;12.63;;;;;;;;;;4777348;29;20271;-82
2024/01/31 20:01:18;;;;;;;21.53;12.40;;;;;;;;;;4787054;29;20216;-81
2024/01/31 20:04:23;;;;;;;18.20;11.93;;;;;;;;;;4786983;29;20192;-82
2024/01/31 20:07:28;;;;;;;20.90;12.13;;;;;;;;;;4807398;29;20228;-81
2024/01/31 20:10:32;;;;;;;17.93;11.23;;;;;;;;;;4809102;29;20189;-82
2024/01/31 20:13:36;;;;;;;20.57;12.37;;;;;;;;;;4797420;29;20193;-82
2024/01/31 20:16:40;;;;;;;21.80;12.67;;;;;;;;;;4807836;29;20201;-82
2024/01/31 20:19:44;;;;;;;18.53;11.93;;;;;;;;;;4797424;29;20674;-82
2024/01/31 20:22:48;;;;;;;14.60;11.00;;;;;;;;;;4808559;29;20193;-82
2024/01/31 20:25:52;;;;;;;18.30;11.37;;;;;;;;;;4807717;29;20193;-82
2024/01/31 20:28:56;;;;;;;15.03;11.17;;;;;;;;;;4807622;29;20232;-82
2024/01/31 20:32:01;;;;;;;17.50;11.97;;;;;;;;;;4808806;29;20184;-82
2024/01/31 20:35:08;;;;;;;17.37;11.17;;;;;;;;;;4810655;29;20197;-82
2024/01/31 20:38:17;;;;;;;15.90;10.97;;;;;;;;;;4801457;29;20228;-82
2024/01/31 20:41:23;;;;;;;16.63;11.13;;;;;;;;;;4779672;29;20683;-82
2024/01/31 20:44:27;;;;;;;15.90;11.13;;;;;;;;;;4798287;29;20643;-82
2024/01/31 20:47:32;;;;;;;18.33;10.60;;;;;;;;;;4811101;29;20233;-82
2024/01/31 20:50:36;;;;;;;16.60;11.70;;;;;;;;;;4810400;29;20185;-82
2024/01/31 20:53:41;;;;;;;16.73;11.00;;;;;;;;;;4809134;29;20638;-82
2024/01/31 20:56:45;;;;;;;17.20;11.00;;;;;;;;;;4798439;29;20631;-82